Time;durP1;ratioP1;P1;durP2;ratioP2;P2;SDS_P1;SDS_P2;PMS_P1;PMS_P2;Temp;Humidity;BMP_temperature;BMP_pressure;BME280_temperature;BME280_humidity;BME280_pressure;Samples;Min_cycle;Max_cycle;Signal;HPM_P1;HPM_P2
2023/05/13 00:01:52;;;;;;;;;5.67;3.00;;;;;;;;5056562;28;45240;-77
2023/05/13 00:04:18;;;;;;;;;5.00;3.33;;;;;;;;5056574;28;45409;-78
2023/05/13 00:06:43;;;;;;;;;3.67;3.00;;;;;;;;5056358;28;46442;-78
2023/05/13 00:09:08;;;;;;;;;2.33;1.33;;;;;;;;5056385;28;45310;-79
2023/05/13 00:11:34;;;;;;;;;2.00;2.00;;;;;;;;5056395;28;45348;-78
2023/05/13 00:13:59;;;;;;;;;2.00;2.00;;;;;;;;5056127;28;45541;-78
2023/05/13 00:16:26;;;;;;;;;4.00;2.00;;;;;;;;5056203;28;46985;-79
2023/05/13 00:18:51;;;;;;;;;3.00;3.00;;;;;;;;5056193;28;45657;-78
2023/05/13 00:21:17;;;;;;;;;3.50;2.00;;;;;;;;5056104;28;45373;-79
2023/05/13 00:23:42;;;;;;;;;4.00;2.00;;;;;;;;5056196;28;45436;-79
2023/05/13 00:26:07;;;;;;;;;2.00;2.00;;;;;;;;5056029;28;45439;-78
2023/05/13 00:28:32;;;;;;;;;2.33;2.00;;;;;;;;5055457;28;45547;-79
2023/05/13 00:30:57;;;;;;;;;2.33;2.00;;;;;;;;5056084;28;45363;-79
2023/05/13 00:33:22;;;;;;;;;2.67;1.00;;;;;;;;5056084;28;45386;-78
2023/05/13 00:35:48;;;;;;;;;3.33;1.00;;;;;;;;5055590;28;45999;-78
2023/05/13 00:38:13;;;;;;;;;3.67;2.33;;;;;;;;5055689;28;45420;-78
2023/05/13 00:40:38;;;;;;;;;4.25;3.00;;;;;;;;5056098;28;45715;-78
2023/05/13 00:43:04;;;;;;;;;2.00;2.00;;;;;;;;5055660;28;45412;-78
2023/05/13 00:45:29;;;;;;;;;4.00;2.25;;;;;;;;5055343;28;46414;-78
2023/05/13 00:47:55;;;;;;;;;5.00;2.00;;;;;;;;5055439;28;45451;-78
2023/05/13 00:50:21;;;;;;;;;4.33;3.00;;;;;;;;5055991;28;45311;-78
2023/05/13 00:52:48;;;;;;;;;4.50;2.75;;;;;;;;5055801;28;45288;-78
2023/05/13 00:55:13;;;;;;;;;4.00;4.00;;;;;;;;5055624;28;45342;-78
2023/05/13 00:57:41;;;;;;;;;2.00;2.00;;;;;;;;5055315;28;45447;-78
2023/05/13 01:00:07;;;;;;;;;4.00;3.00;;;;;;;;5055842;28;45388;-78
2023/05/13 01:02:33;;;;;;;;;2.00;0.00;;;;;;;;5055667;28;45387;-78
2023/05/13 01:05:03;;;;;;;;;3.25;3.00;;;;;;;;5055524;28;45672;-78
2023/05/13 01:07:38;;;;;;;;;3.00;2.25;;;;;;;;5037219;28;45848;-78
2023/05/13 01:10:18;;;;;;;;;4.75;2.75;;;;;;;;5054526;28;45413;-78
2023/05/13 01:12:45;;;;;;;;;2.00;2.00;;;;;;;;5055397;28;45421;-78
2023/05/13 01:15:13;;;;;;;;;6.75;3.75;;;;;;;;5055465;28;46202;-79
2023/05/13 01:17:39;;;;;;;;;1.00;1.00;;;;;;;;5055325;28;45864;-78
2023/05/13 01:20:05;;;;;;;;;3.00;1.75;;;;;;;;5055617;28;45332;-79
2023/05/13 01:22:31;;;;;;;;;2.25;0.75;;;;;;;;5055281;28;45533;-79
2023/05/13 01:24:56;;;;;;;;;2.50;2.50;;;;;;;;5054823;28;46410;-78
2023/05/13 01:27:21;;;;;;;;;1.67;1.67;;;;;;;;5055358;28;45303;-79
2023/05/13 01:29:48;;;;;;;;;4.00;2.50;;;;;;;;5055102;28;45340;-78
2023/05/13 01:32:14;;;;;;;;;3.25;1.00;;;;;;;;5055113;28;45577;-78
2023/05/13 01:34:40;;;;;;;;;5.50;4.00;;;;;;;;5055183;28;47021;-79
2023/05/13 01:37:05;;;;;;;;;5.00;2.75;;;;;;;;5037049;28;45745;-78
2023/05/13 01:39:31;;;;;;;;;2.00;2.00;;;;;;;;5054954;28;45384;-79
2023/05/13 01:41:56;;;;;;;;;5.25;2.75;;;;;;;;5055194;28;45277;-81
2023/05/13 01:44:21;;;;;;;;;4.00;2.00;;;;;;;;5054829;28;45365;-80
2023/05/13 01:46:49;;;;;;;;;4.00;4.00;;;;;;;;5037200;28;45963;-79
2023/05/13 01:49:14;;;;;;;;;6.00;3.50;;;;;;;;5055235;28;45488;-78
2023/05/13 01:51:40;;;;;;;;;1.00;1.00;;;;;;;;5055009;28;45381;-79
2023/05/13 01:54:05;;;;;;;;;2.75;2.00;;;;;;;;5054479;28;47111;-78
2023/05/13 01:56:30;;;;;;;;;3.00;2.00;;;;;;;;5036855;28;45523;-78
2023/05/13 01:58:56;;;;;;;;;4.25;2.25;;;;;;;;5055199;28;45317;-78
2023/05/13 02:01:21;;;;;;;;;5.00;3.00;;;;;;;;5055066;28;45369;-78
2023/05/13 02:03:46;;;;;;;;;3.00;2.67;;;;;;;;5054677;28;45518;-78
2023/05/13 02:06:11;;;;;;;;;5.33;2.33;;;;;;;;5036864;28;45738;-78
2023/05/13 02:08:36;;;;;;;;;4.67;2.00;;;;;;;;5054249;28;45498;-78
2023/05/13 02:11:02;;;;;;;;;4.50;2.00;;;;;;;;5054944;28;45594;-78
2023/05/13 02:13:27;;;;;;;;;4.00;2.00;;;;;;;;5054532;28;47114;-78
2023/05/13 02:15:53;;;;;;;;;4.75;1.50;;;;;;;;5036452;28;45381;-78
2023/05/13 02:18:19;;;;;;;;;3.25;2.50;;;;;;;;5054768;28;45369;-78
2023/05/13 02:20:44;;;;;;;;;4.50;2.25;;;;;;;;5054706;28;45455;-79
2023/05/13 02:23:10;;;;;;;;;3.00;2.00;;;;;;;;5056449;28;46719;-78
2023/05/13 02:25:35;;;;;;;;;8.00;6.00;;;;;;;;5058021;28;45350;-78
2023/05/13 02:28:00;;;;;;;;;4.00;3.00;;;;;;;;5058220;28;45452;-78
2023/05/13 02:30:26;;;;;;;;;5.00;3.00;;;;;;;;5057806;28;45290;-78
2023/05/13 02:32:51;;;;;;;;;6.00;4.00;;;;;;;;5057769;28;45260;-78
2023/05/13 02:35:16;;;;;;;;;3.75;3.75;;;;;;;;5057800;28;45320;-78
2023/05/13 02:37:42;;;;;;;;;6.67;3.00;;;;;;;;5057451;28;45346;-78
2023/05/13 02:40:07;;;;;;;;;3.50;3.25;;;;;;;;5057943;28;45361;-78
2023/05/13 02:42:33;;;;;;;;;7.00;4.50;;;;;;;;5057593;28;46233;-78
2023/05/13 02:44:58;;;;;;;;;7.33;4.00;;;;;;;;5057565;28;45478;-78
2023/05/13 02:47:24;;;;;;;;;9.25;6.25;;;;;;;;5057677;28;45470;-78
2023/05/13 02:49:49;;;;;;;;;11.00;4.00;;;;;;;;5057456;28;45335;-78
2023/05/13 02:52:14;;;;;;;;;4.00;4.00;;;;;;;;5057302;28;46117;-78
2023/05/13 02:54:39;;;;;;;;;9.67;7.00;;;;;;;;5057635;28;45348;-79
2023/05/13 02:57:05;;;;;;;;;8.67;7.00;;;;;;;;5039611;28;45379;-79
2023/05/13 02:59:30;;;;;;;;;8.25;6.25;;;;;;;;5057422;28;45353;-79
2023/05/13 03:01:55;;;;;;;;;10.00;8.00;;;;;;;;5057488;28;46081;-78
2023/05/13 03:04:21;;;;;;;;;8.00;6.25;;;;;;;;5057294;28;45355;-79
2023/05/13 03:06:46;;;;;;;;;8.67;5.67;;;;;;;;5057338;28;45380;-79
2023/05/13 03:09:11;;;;;;;;;8.33;5.00;;;;;;;;5057353;28;45352;-78
2023/05/13 03:11:36;;;;;;;;;12.33;6.33;;;;;;;;5057241;28;45382;-79
2023/05/13 03:14:01;;;;;;;;;9.33;7.00;;;;;;;;5039273;28;45336;-79
2023/05/13 03:16:27;;;;;;;;;17.00;9.67;;;;;;;;5057068;28;45463;-78
2023/05/13 03:18:52;;;;;;;;;8.00;5.67;;;;;;;;5057134;28;45417;-79
2023/05/13 03:21:17;;;;;;;;;13.67;9.67;;;;;;;;5038213;28;46988;-78
2023/05/13 03:23:42;;;;;;;;;14.00;9.67;;;;;;;;5057134;28;45423;-79
2023/05/13 03:26:08;;;;;;;;;13.75;10.25;;;;;;;;5057316;28;45338;-78
2023/05/13 03:28:33;;;;;;;;;11.67;9.67;;;;;;;;5038638;28;45508;-79
2023/05/13 03:30:58;;;;;;;;;19.33;12.33;;;;;;;;5056933;28;46455;-79
2023/05/13 03:33:23;;;;;;;;;20.75;17.25;;;;;;;;5056407;28;45632;-79
2023/05/13 03:35:49;;;;;;;;;22.33;17.33;;;;;;;;5056391;28;45368;-78
2023/05/13 03:38:14;;;;;;;;;18.00;14.50;;;;;;;;5054878;28;45538;-79
2023/05/13 03:40:40;;;;;;;;;24.00;17.00;;;;;;;;5056428;28;45586;-79
2023/05/13 03:43:05;;;;;;;;;21.67;19.33;;;;;;;;5056829;28;45341;-79
2023/05/13 03:45:30;;;;;;;;;22.33;16.00;;;;;;;;5056499;28;45373;-79
2023/05/13 03:47:56;;;;;;;;;20.33;16.00;;;;;;;;5056560;28;45400;-78
2023/05/13 03:50:21;;;;;;;;;21.50;16.00;;;;;;;;5056246;28;46163;-78
2023/05/13 03:52:46;;;;;;;;;29.00;22.67;;;;;;;;5056827;28;45481;-79
2023/05/13 03:55:13;;;;;;;;;31.33;20.33;;;;;;;;5056635;28;45344;-78
2023/05/13 03:57:38;;;;;;;;;26.25;21.75;;;;;;;;5056317;28;45428;-78
2023/05/13 04:00:04;;;;;;;;;26.00;22.33;;;;;;;;5056393;28;47206;-77
2023/05/13 04:02:29;;;;;;;;;26.75;18.75;;;;;;;;5056367;28;45463;-78
2023/05/13 04:04:54;;;;;;;;;33.67;19.00;;;;;;;;5056363;28;45333;-78
2023/05/13 04:07:19;;;;;;;;;29.00;22.00;;;;;;;;5056455;28;45480;-79
2023/05/13 04:09:45;;;;;;;;;25.67;18.67;;;;;;;;5055954;28;45493;-77
2023/05/13 04:12:10;;;;;;;;;26.67;19.00;;;;;;;;5038182;28;45511;-78
2023/05/13 04:14:35;;;;;;;;;25.67;18.33;;;;;;;;5056496;28;45416;-77
2023/05/13 04:17:00;;;;;;;;;32.50;21.50;;;;;;;;5056206;28;45446;-78
2023/05/13 04:19:26;;;;;;;;;31.67;23.33;;;;;;;;5055817;28;46510;-78
2023/05/13 04:21:51;;;;;;;;;25.67;18.67;;;;;;;;5056144;28;45380;-78
2023/05/13 04:24:16;;;;;;;;;30.33;22.67;;;;;;;;5038169;28;45408;-78
2023/05/13 04:26:41;;;;;;;;;21.67;17.00;;;;;;;;5056155;28;45378;-79
2023/05/13 04:29:06;;;;;;;;;21.00;17.00;;;;;;;;5055922;28;45629;-79
2023/05/13 04:31:32;;;;;;;;;25.25;20.00;;;;;;;;5055943;28;45360;-79
2023/05/13 04:33:57;;;;;;;;;27.00;20.33;;;;;;;;5055754;28;45404;-79
2023/05/13 04:36:22;;;;;;;;;39.67;21.33;;;;;;;;5056174;28;45401;-79
2023/05/13 04:38:47;;;;;;;;;28.00;20.67;;;;;;;;5055838;28;45389;-78
2023/05/13 04:41:12;;;;;;;;;22.33;16.67;;;;;;;;5056051;28;45353;-78
2023/05/13 04:43:37;;;;;;;;;28.00;21.00;;;;;;;;5056105;28;45381;-78
2023/05/13 04:46:03;;;;;;;;;28.00;19.33;;;;;;;;5054528;28;45482;-78
2023/05/13 04:48:28;;;;;;;;;28.75;21.50;;;;;;;;5055390;28;46291;-78
2023/05/13 04:50:53;;;;;;;;;25.33;20.33;;;;;;;;5055741;28;45412;-78
2023/05/13 04:53:18;;;;;;;;;26.00;21.00;;;;;;;;5055512;28;45320;-79
2023/05/13 04:55:45;;;;;;;;;37.00;21.00;;;;;;;;5055520;28;45249;-79
2023/05/13 04:58:10;;;;;;;;;28.00;18.75;;;;;;;;5055448;28;47426;-78
2023/05/13 05:00:35;;;;;;;;;25.33;21.00;;;;;;;;5055786;28;45552;-79
2023/05/13 05:03:01;;;;;;;;;36.00;23.00;;;;;;;;5055566;28;45345;-78
2023/05/13 05:05:26;;;;;;;;;26.00;21.00;;;;;;;;5055654;28;45643;-78
2023/05/13 05:07:51;;;;;;;;;24.67;16.67;;;;;;;;5055368;28;45982;-78
2023/05/13 05:10:16;;;;;;;;;28.00;19.33;;;;;;;;5055374;28;45368;-78
2023/05/13 05:12:41;;;;;;;;;31.67;23.00;;;;;;;;5037541;28;46367;-78
2023/05/13 05:15:14;;;;;;;;;22.33;20.67;;;;;;;;5055727;28;45268;-78
2023/05/13 05:17:39;;;;;;;;;26.25;21.75;;;;;;;;5054777;28;46446;-78
2023/05/13 05:20:05;;;;;;;;;26.00;16.50;;;;;;;;5055384;28;45365;-78
2023/05/13 05:22:30;;;;;;;;;28.25;18.25;;;;;;;;5055446;28;45270;-76
2023/05/13 05:24:55;;;;;;;;;26.33;20.33;;;;;;;;5055375;28;45289;-78
2023/05/13 05:27:20;;;;;;;;;27.33;21.33;;;;;;;;5055030;28;47334;-78
2023/05/13 05:29:45;;;;;;;;;27.00;17.67;;;;;;;;5054339;28;45334;-78
2023/05/13 05:32:11;;;;;;;;;25.33;16.00;;;;;;;;5055115;28;45269;-78
2023/05/13 05:34:36;;;;;;;;;24.00;19.00;;;;;;;;5055171;28;45662;-78
2023/05/13 05:37:01;;;;;;;;;25.67;22.33;;;;;;;;5055084;28;46213;-78
2023/05/13 05:39:26;;;;;;;;;27.00;18.00;;;;;;;;5055279;28;45266;-78
2023/05/13 05:41:52;;;;;;;;;22.00;19.00;;;;;;;;5037171;28;45345;-78
2023/05/13 05:44:17;;;;;;;;;26.75;19.00;;;;;;;;5055056;28;45367;-78
2023/05/13 05:46:42;;;;;;;;;27.33;22.33;;;;;;;;5054727;28;46578;-78
2023/05/13 05:49:07;;;;;;;;;22.00;17.33;;;;;;;;5054919;28;45333;-77
2023/05/13 05:51:32;;;;;;;;;28.33;18.00;;;;;;;;5054939;28;45261;-78
2023/05/13 05:53:58;;;;;;;;;21.33;19.33;;;;;;;;5055182;28;45362;-78
2023/05/13 05:56:23;;;;;;;;;28.00;16.00;;;;;;;;5056134;28;46081;-78
2023/05/13 05:58:48;;;;;;;;;25.33;19.67;;;;;;;;5058418;28;45227;-78
2023/05/13 06:01:13;;;;;;;;;30.33;16.67;;;;;;;;5057988;28;45353;-78
2023/05/13 06:03:38;;;;;;;;;23.00;17.67;;;;;;;;5058566;28;45345;-78
2023/05/13 06:06:04;;;;;;;;;31.33;17.33;;;;;;;;5058311;28;46793;-78
2023/05/13 06:08:29;;;;;;;;;25.25;19.75;;;;;;;;5057942;28;45332;-78
2023/05/13 06:10:58;;;;;;;;;26.25;20.50;;;;;;;;5058110;28;45360;-79
2023/05/13 06:13:23;;;;;;;;;28.75;21.00;;;;;;;;5040154;28;45373;-78
2023/05/13 06:15:48;;;;;;;;;16.25;12.00;;;;;;;;5057724;28;46253;-78
2023/05/13 06:18:13;;;;;;;;;28.00;23.00;;;;;;;;5058219;28;45364;-79
2023/05/13 06:20:39;;;;;;;;;21.33;17.67;;;;;;;;5058034;28;45341;-78
2023/05/13 06:23:04;;;;;;;;;21.00;17.75;;;;;;;;5057994;28;45601;-78
2023/05/13 06:25:30;;;;;;;;;28.67;22.33;;;;;;;;5057906;28;46553;-78
2023/05/13 06:27:55;;;;;;;;;25.33;19.33;;;;;;;;5056074;28;45381;-78
2023/05/13 06:30:22;;;;;;;;;21.00;17.67;;;;;;;;5057316;28;45499;-78
2023/05/13 06:32:47;;;;;;;;;25.00;21.25;;;;;;;;5058056;28;45372;-78
2023/05/13 06:35:12;;;;;;;;;28.67;19.00;;;;;;;;5057633;28;45570;-78
2023/05/13 06:37:37;;;;;;;;;22.33;16.00;;;;;;;;5057476;28;45541;-79
2023/05/13 06:40:03;;;;;;;;;28.00;17.00;;;;;;;;5057999;28;45314;-79
2023/05/13 06:42:28;;;;;;;;;20.75;18.25;;;;;;;;5057414;28;45604;-78
2023/05/13 06:44:53;;;;;;;;;18.00;16.00;;;;;;;;5056301;28;46143;-79
2023/05/13 06:47:18;;;;;;;;;22.67;16.33;;;;;;;;5057294;28;45474;-79
2023/05/13 06:49:44;;;;;;;;;24.00;20.33;;;;;;;;5057202;28;45282;-79
2023/05/13 06:52:09;;;;;;;;;18.33;16.00;;;;;;;;5057747;28;45427;-79
2023/05/13 06:54:34;;;;;;;;;27.25;19.50;;;;;;;;5055877;28;45686;-79
2023/05/13 06:57:00;;;;;;;;;27.00;17.00;;;;;;;;5056289;28;45379;-78
2023/05/13 06:59:25;;;;;;;;;35.25;19.00;;;;;;;;5056414;28;45305;-78
2023/05/13 07:01:50;;;;;;;;;25.67;16.33;;;;;;;;5056659;28;45403;-78
2023/05/13 07:04:15;;;;;;;;;25.33;16.33;;;;;;;;5056949;28;45518;-79
2023/05/13 07:06:41;;;;;;;;;25.67;20.33;;;;;;;;5056592;28;45471;-78
2023/05/13 07:09:08;;;;;;;;;23.33;19.00;;;;;;;;5055357;28;45253;-78
2023/05/13 07:11:33;;;;;;;;;22.75;18.25;;;;;;;;5056491;28;45528;-78
2023/05/13 07:13:58;;;;;;;;;28.33;19.33;;;;;;;;5055731;28;46211;-76
2023/05/13 07:16:24;;;;;;;;;25.33;19.00;;;;;;;;5038804;28;45360;-79
2023/05/13 07:18:49;;;;;;;;;35.00;20.50;;;;;;;;5056781;28;45250;-78
2023/05/13 07:21:15;;;;;;;;;28.25;20.50;;;;;;;;5056957;28;45293;-78
2023/05/13 07:23:40;;;;;;;;;25.25;17.75;;;;;;;;5056849;28;46939;-78
2023/05/13 07:26:06;;;;;;;;;22.75;17.75;;;;;;;;5055991;28;45334;-78
2023/05/13 07:28:31;;;;;;;;;26.00;21.00;;;;;;;;5057230;28;45292;-78
2023/05/13 07:30:57;;;;;;;;;23.67;18.00;;;;;;;;5057081;28;45300;-79
2023/05/13 07:33:22;;;;;;;;;27.00;17.25;;;;;;;;5057541;28;46155;-79
2023/05/13 07:35:47;;;;;;;;;33.00;21.50;;;;;;;;5057050;28;45265;-78
2023/05/13 07:38:13;;;;;;;;;19.25;18.00;;;;;;;;5056671;28;45365;-78
2023/05/13 07:40:38;;;;;;;;;18.25;18.00;;;;;;;;5057168;28;45416;-79
2023/05/13 07:43:04;;;;;;;;;21.00;18.75;;;;;;;;5056119;28;46109;-78
2023/05/13 07:45:29;;;;;;;;;19.25;19.25;;;;;;;;5038722;28;45384;-78
2023/05/13 07:47:55;;;;;;;;;33.00;23.33;;;;;;;;5056532;28;45335;-79
2023/05/13 07:50:20;;;;;;;;;27.75;18.50;;;;;;;;5055739;28;45336;-78
2023/05/13 07:52:47;;;;;;;;;36.67;24.33;;;;;;;;5056468;28;45494;-78
2023/05/13 07:55:13;;;;;;;;;28.00;21.50;;;;;;;;5056678;28;45970;-79
2023/05/13 07:57:38;;;;;;;;;28.50;21.50;;;;;;;;5055602;28;45448;-78
2023/05/13 08:00:04;;;;;;;;;24.00;19.00;;;;;;;;5056782;28;45493;-78
2023/05/13 08:02:33;;;;;;;;;25.50;17.75;;;;;;;;5054995;28;47408;-78
2023/05/13 08:04:58;;;;;;;;;11.75;7.50;;;;;;;;5056664;28;45371;-77
2023/05/13 08:07:23;;;;;;;;;23.00;19.67;;;;;;;;5038091;28;45472;-78
2023/05/13 08:09:49;;;;;;;;;23.00;20.67;;;;;;;;5055860;28;45377;-78
2023/05/13 08:12:14;;;;;;;;;32.00;23.00;;;;;;;;5054727;28;46302;-79
2023/05/13 08:14:39;;;;;;;;;29.33;22.33;;;;;;;;5056536;28;45697;-79
2023/05/13 08:17:06;;;;;;;;;31.00;24.00;;;;;;;;5056529;28;45441;-78
2023/05/13 08:19:31;;;;;;;;;26.25;19.75;;;;;;;;5055580;28;45291;-78
2023/05/13 08:21:57;;;;;;;;;31.50;23.50;;;;;;;;5062332;28;46334;-78
2023/05/13 08:24:22;;;;;;;;;28.67;23.33;;;;;;;;5055412;28;45321;-78
2023/05/13 08:26:47;;;;;;;;;26.67;21.33;;;;;;;;5056147;28;45329;-78
2023/05/13 08:29:14;;;;;;;;;28.00;19.33;;;;;;;;5056329;28;45537;-78
2023/05/13 08:31:39;;;;;;;;;30.25;21.25;;;;;;;;5056200;28;45665;-78
2023/05/13 08:34:04;;;;;;;;;29.00;22.75;;;;;;;;5037269;28;45502;-78
2023/05/13 08:36:30;;;;;;;;;30.67;20.67;;;;;;;;5056268;28;45482;-78
2023/05/13 08:38:55;;;;;;;;;31.00;22.00;;;;;;;;5056325;28;45340;-78
2023/05/13 08:41:21;;;;;;;;;31.00;21.00;;;;;;;;5055501;28;46023;-78
2023/05/13 08:43:47;;;;;;;;;27.50;22.75;;;;;;;;5055881;28;45323;-79
2023/05/13 08:46:15;;;;;;;;;26.00;22.00;;;;;;;;5055799;28;45286;-78
2023/05/13 08:48:41;;;;;;;;;31.50;23.00;;;;;;;;5055910;28;45414;-79
2023/05/13 08:51:08;;;;;;;;;26.50;23.25;;;;;;;;5037922;28;46428;-78
2023/05/13 08:53:34;;;;;;;;;26.50;22.00;;;;;;;;5055778;28;45368;-78
2023/05/13 08:55:59;;;;;;;;;30.75;22.00;;;;;;;;5036908;28;45541;-79
2023/05/13 08:58:24;;;;;;;;;27.25;21.00;;;;;;;;5055811;28;45352;-78
2023/05/13 09:00:51;;;;;;;;;27.00;20.00;;;;;;;;5055843;28;46924;-79
2023/05/13 09:03:17;;;;;;;;;26.00;18.50;;;;;;;;5037684;28;45939;-78
2023/05/13 09:05:43;;;;;;;;;33.25;21.50;;;;;;;;5054913;28;45266;-79
2023/05/13 09:08:08;;;;;;;;;29.67;23.67;;;;;;;;5054284;28;45346;-79
2023/05/13 09:10:34;;;;;;;;;31.00;20.25;;;;;;;;5054702;28;46911;-78
2023/05/13 09:13:00;;;;;;;;;28.25;19.75;;;;;;;;5055536;28;45440;-78
2023/05/13 09:15:26;;;;;;;;;27.00;16.00;;;;;;;;5055576;28;45394;-78
2023/05/13 09:17:57;;;;;;;;;21.75;18.00;;;;;;;;5055310;28;45542;-77
2023/05/13 09:20:24;;;;;;;;;27.50;18.75;;;;;;;;5055474;28;46487;-78
2023/05/13 09:22:51;;;;;;;;;25.25;20.75;;;;;;;;5055384;28;45334;-78
2023/05/13 09:25:17;;;;;;;;;30.25;18.50;;;;;;;;5055311;28;45537;-78
2023/05/13 09:27:43;;;;;;;;;23.50;17.00;;;;;;;;5055536;28;45305;-77
2023/05/13 09:30:09;;;;;;;;;25.25;16.75;;;;;;;;5055415;28;46127;-78
2023/05/13 09:32:34;;;;;;;;;24.00;18.00;;;;;;;;5058675;28;45436;-79
2023/05/13 09:35:15;;;;;;;;;29.00;22.75;;;;;;;;5058937;28;45491;-79
2023/05/13 09:37:44;;;;;;;;;28.00;21.25;;;;;;;;5058694;28;45363;-78
2023/05/13 09:40:11;;;;;;;;;24.50;19.50;;;;;;;;5040078;28;46471;-78
2023/05/13 09:42:39;;;;;;;;;30.00;24.50;;;;;;;;5058911;28;45916;-78
2023/05/13 09:45:05;;;;;;;;;25.50;21.25;;;;;;;;5059112;28;45464;-78
2023/05/13 09:47:31;;;;;;;;;27.00;22.00;;;;;;;;5058894;28;45397;-78
2023/05/13 09:49:56;;;;;;;;;27.33;19.67;;;;;;;;5058785;28;45345;-78
2023/05/13 09:52:21;;;;;;;;;29.25;19.75;;;;;;;;5058295;28;45548;-78
2023/05/13 09:54:47;;;;;;;;;25.67;19.00;;;;;;;;5059060;28;45334;-79
2023/05/13 09:57:12;;;;;;;;;25.00;20.67;;;;;;;;5058832;28;45434;-78
2023/05/13 09:59:37;;;;;;;;;22.00;18.00;;;;;;;;5058848;28;45985;-78
2023/05/13 10:02:04;;;;;;;;;28.67;19.00;;;;;;;;5058775;28;45329;-78
2023/05/13 10:04:29;;;;;;;;;26.25;19.50;;;;;;;;5058827;28;45305;-78
2023/05/13 10:06:56;;;;;;;;;25.25;18.75;;;;;;;;5040277;28;45330;-78
2023/05/13 10:09:21;;;;;;;;;20.25;17.50;;;;;;;;5058625;28;46248;-79
2023/05/13 10:11:47;;;;;;;;;29.50;19.75;;;;;;;;5058389;28;45298;-78
2023/05/13 10:14:12;;;;;;;;;26.00;17.75;;;;;;;;5058770;28;45417;-78
2023/05/13 10:16:38;;;;;;;;;21.75;15.25;;;;;;;;5058777;28;45293;-78
2023/05/13 10:19:03;;;;;;;;;20.25;14.75;;;;;;;;5058229;28;45633;-78
2023/05/13 10:21:30;;;;;;;;;24.00;18.00;;;;;;;;5058299;28;45381;-78
2023/05/13 10:23:55;;;;;;;;;20.25;16.75;;;;;;;;5058501;28;45372;-78
2023/05/13 10:26:21;;;;;;;;;27.00;22.25;;;;;;;;5058505;28;45413;-78
2023/05/13 10:28:47;;;;;;;;;24.50;18.00;;;;;;;;5058221;28;46629;-78
2023/05/13 10:31:12;;;;;;;;;21.00;17.50;;;;;;;;5058285;28;45464;-79
2023/05/13 10:33:38;;;;;;;;;28.33;20.67;;;;;;;;5058579;28;45427;-78
2023/05/13 10:36:07;;;;;;;;;21.50;15.50;;;;;;;;5058125;28;45599;-78
2023/05/13 10:38:42;;;;;;;;;26.25;20.25;;;;;;;;5058098;28;45313;-78
2023/05/13 10:41:25;;;;;;;;;21.00;17.00;;;;;;;;5058290;28;45704;-78
2023/05/13 10:43:57;;;;;;;;;23.00;17.25;;;;;;;;5056839;28;45316;-78
2023/05/13 10:46:22;;;;;;;;;23.25;17.00;;;;;;;;5058226;28;45376;-78
2023/05/13 10:48:54;;;;;;;;;25.00;18.00;;;;;;;;5057954;28;45683;-78
2023/05/13 10:51:22;;;;;;;;;25.75;20.50;;;;;;;;5057630;28;45737;-78
2023/05/13 10:53:49;;;;;;;;;20.25;17.00;;;;;;;;5058104;28;45302;-79
2023/05/13 10:56:14;;;;;;;;;24.25;15.00;;;;;;;;5058181;28;45393;-78
2023/05/13 10:58:39;;;;;;;;;26.50;18.25;;;;;;;;5057824;28;47691;-79
2023/05/13 11:01:13;;;;;;;;;19.33;18.33;;;;;;;;5058102;28;45209;-78
2023/05/13 11:03:38;;;;;;;;;29.75;16.75;;;;;;;;5058069;28;45496;-78
2023/05/13 11:06:17;;;;;;;;;24.75;17.25;;;;;;;;5057549;28;45342;-78
2023/05/13 11:08:43;;;;;;;;;25.25;18.00;;;;;;;;5057508;28;46097;-78
2023/05/13 11:11:21;;;;;;;;;22.75;17.00;;;;;;;;5057530;28;45250;-78
2023/05/13 11:13:53;;;;;;;;;21.75;18.00;;;;;;;;5057797;28;45357;-78
2023/05/13 11:16:19;;;;;;;;;22.00;17.50;;;;;;;;5057847;28;45298;-79
2023/05/13 11:18:45;;;;;;;;;24.25;19.25;;;;;;;;5057547;28;45579;-79
2023/05/13 11:21:10;;;;;;;;;29.00;19.50;;;;;;;;5057198;28;45380;-79
2023/05/13 11:23:54;;;;;;;;;29.00;18.33;;;;;;;;5057649;28;45413;-78
2023/05/13 11:26:20;;;;;;;;;35.75;25.25;;;;;;;;5057678;28;45285;-79
2023/05/13 11:28:53;;;;;;;;;24.00;20.00;;;;;;;;5057592;28;46287;-79
2023/05/13 11:31:18;;;;;;;;;22.75;16.75;;;;;;;;5057306;28;45230;-79
2023/05/13 11:34:08;;;;;;;;;25.00;17.25;;;;;;;;5057256;28;45207;-79
2023/05/13 11:36:33;;;;;;;;;17.75;17.00;;;;;;;;5046853;28;45540;-79
2023/05/13 11:39:10;;;;;;;;;22.00;17.50;;;;;;;;5057262;28;45595;-79
2023/05/13 11:41:36;;;;;;;;;23.50;19.75;;;;;;;;5057148;28;45418;-79
2023/05/13 11:44:03;;;;;;;;;24.00;19.50;;;;;;;;5057259;28;45352;-79
2023/05/13 11:46:28;;;;;;;;;20.00;16.25;;;;;;;;5039391;28;45313;-79
2023/05/13 11:48:54;;;;;;;;;21.67;17.00;;;;;;;;5038658;28;47266;-79
2023/05/13 11:51:19;;;;;;;;;19.50;15.25;;;;;;;;5057081;28;45444;-79
2023/05/13 11:53:44;;;;;;;;;25.50;19.50;;;;;;;;5056693;28;45290;-79
2023/05/13 11:56:11;;;;;;;;;23.67;15.00;;;;;;;;5057145;28;45357;-79
2023/05/13 11:58:36;;;;;;;;;16.25;15.00;;;;;;;;5056696;28;45420;-79
2023/05/13 12:01:02;;;;;;;;;14.33;13.00;;;;;;;;5057011;28;45297;-79
2023/05/13 12:03:27;;;;;;;;;20.67;13.00;;;;;;;;5056715;28;45386;-79
2023/05/13 12:06:01;;;;;;;;;13.67;13.00;;;;;;;;5057206;28;45302;-79
2023/05/13 12:08:27;;;;;;;;;18.75;15.50;;;;;;;;5056579;28;46671;-79
2023/05/13 12:10:52;;;;;;;;;16.33;13.00;;;;;;;;5056971;28;45405;-79
2023/05/13 12:13:17;;;;;;;;;19.25;13.25;;;;;;;;5056878;28;45419;-77
2023/05/13 12:15:43;;;;;;;;;14.25;12.00;;;;;;;;5056808;28;45452;-77
2023/05/13 12:18:08;;;;;;;;;16.00;12.00;;;;;;;;5056219;28;47287;-77
2023/05/13 12:20:33;;;;;;;;;13.67;10.00;;;;;;;;5056546;28;45381;-77
2023/05/13 12:22:59;;;;;;;;;15.67;10.67;;;;;;;;5056758;28;45348;-77
2023/05/13 12:25:34;;;;;;;;;10.00;9.25;;;;;;;;5056570;28;45347;-78
2023/05/13 12:28:15;;;;;;;;;12.25;10.75;;;;;;;;5056658;28;46176;-77
2023/05/13 12:30:41;;;;;;;;;10.75;9.25;;;;;;;;5056449;28;46471;-78
2023/05/13 12:33:14;;;;;;;;;11.75;10.00;;;;;;;;5056367;28;45400;-77
2023/05/13 12:35:39;;;;;;;;;11.75;9.00;;;;;;;;5056558;28;45285;-78
2023/05/13 12:38:04;;;;;;;;;11.00;9.25;;;;;;;;5056294;28;46306;-77
2023/05/13 12:40:30;;;;;;;;;15.00;10.25;;;;;;;;5056351;28;45459;-77
2023/05/13 12:42:59;;;;;;;;;12.25;6.50;;;;;;;;5056503;28;45328;-77
2023/05/13 12:45:28;;;;;;;;;12.25;7.50;;;;;;;;5056186;28;45526;-77
2023/05/13 12:47:53;;;;;;;;;11.75;9.00;;;;;;;;5055616;28;46225;-77
2023/05/13 12:50:18;;;;;;;;;10.50;8.00;;;;;;;;5056166;28;45291;-77
2023/05/13 12:52:44;;;;;;;;;8.00;6.00;;;;;;;;5056245;28;45285;-77
2023/05/13 12:55:09;;;;;;;;;8.67;7.67;;;;;;;;5056210;28;45295;-77
2023/05/13 12:57:34;;;;;;;;;11.50;10.00;;;;;;;;5056022;28;46028;-77
2023/05/13 12:59:59;;;;;;;;;8.33;8.00;;;;;;;;5037993;28;45394;-77
2023/05/13 13:02:24;;;;;;;;;10.67;8.00;;;;;;;;5055676;28;45402;-77
2023/05/13 13:04:50;;;;;;;;;11.33;7.00;;;;;;;;5056151;28;45445;-77
2023/05/13 13:07:16;;;;;;;;;6.33;6.00;;;;;;;;5055029;28;45473;-78
2023/05/13 13:09:41;;;;;;;;;7.00;7.00;;;;;;;;5055750;28;45427;-77
2023/05/13 13:12:06;;;;;;;;;10.67;7.00;;;;;;;;5056072;28;45336;-77
2023/05/13 13:14:32;;;;;;;;;10.33;6.33;;;;;;;;5055808;28;45351;-77
2023/05/13 13:16:57;;;;;;;;;10.00;4.25;;;;;;;;5037165;28;47180;-77
2023/05/13 13:19:22;;;;;;;;;7.00;5.33;;;;;;;;5055786;28;45509;-77
2023/05/13 13:21:47;;;;;;;;;5.33;5.33;;;;;;;;5055923;28;45242;-77
2023/05/13 13:24:12;;;;;;;;;12.00;5.67;;;;;;;;5055483;28;45332;-77
2023/05/13 13:26:37;;;;;;;;;5.33;5.33;;;;;;;;5055527;28;46218;-77
2023/05/13 13:29:03;;;;;;;;;8.33;6.33;;;;;;;;5055610;28;45329;-77
2023/05/13 13:31:28;;;;;;;;;5.33;5.33;;;;;;;;5055468;28;45415;-77
2023/05/13 13:33:53;;;;;;;;;5.75;4.25;;;;;;;;5071358;28;45530;-77
2023/05/13 13:36:18;;;;;;;;;5.33;5.00;;;;;;;;5055655;28;45480;-77
2023/05/13 13:38:44;;;;;;;;;7.00;4.00;;;;;;;;5055507;28;45425;-77
2023/05/13 13:41:09;;;;;;;;;5.00;5.00;;;;;;;;5055620;28;45322;-77
2023/05/13 13:43:34;;;;;;;;;6.00;3.67;;;;;;;;5055680;28;45345;-77
2023/05/13 13:45:59;;;;;;;;;9.00;4.00;;;;;;;;5054744;28;46998;-77
2023/05/13 13:48:24;;;;;;;;;7.67;3.33;;;;;;;;5055099;28;45218;-78
2023/05/13 13:50:51;;;;;;;;;6.00;4.00;;;;;;;;5037350;28;45313;-77
2023/05/13 13:53:16;;;;;;;;;5.00;5.00;;;;;;;;5055442;28;45277;-77
2023/05/13 13:55:42;;;;;;;;;3.25;3.25;;;;;;;;5037219;28;46387;-77
2023/05/13 13:58:07;;;;;;;;;3.00;1.67;;;;;;;;5055460;28;45318;-78
2023/05/13 14:00:32;;;;;;;;;3.67;3.67;;;;;;;;5054799;28;45321;-77
2023/05/13 14:02:57;;;;;;;;;7.00;4.00;;;;;;;;5055404;28;45652;-77
2023/05/13 14:05:23;;;;;;;;;5.00;4.00;;;;;;;;5055169;28;46373;-77
2023/05/13 14:07:52;;;;;;;;;3.33;2.67;;;;;;;;5054869;28;45439;-77
2023/05/13 14:10:17;;;;;;;;;6.00;4.00;;;;;;;;5037206;28;45471;-78
2023/05/13 14:12:42;;;;;;;;;3.00;3.00;;;;;;;;5055006;28;45376;-77
2023/05/13 14:15:08;;;;;;;;;3.00;3.00;;;;;;;;5054886;28;46618;-78
2023/05/13 14:17:33;;;;;;;;;4.75;3.50;;;;;;;;5056537;28;45451;-77
2023/05/13 14:19:58;;;;;;;;;5.00;4.00;;;;;;;;5058619;28;45343;-77